Time;durP1;ratioP1;P1;durP2;ratioP2;P2;SDS_P1;SDS_P2;PMS_P1;PMS_P2;Temp;Humidity;BMP_temperature;BMP_pressure;BME280_temperature;BME280_humidity;BME280_pressure;Samples;Min_cycle;Max_cycle;Signal;HPM_P1;HPM_P2
2022/06/13 00:02:06;;;;;;;13.45;5.90;;;;;;;;;;4869958;29;20056;-82
2022/06/13 00:04:32;;;;;;;15.05;6.60;;;;;;;;;;4889573;29;20108;-82
2022/06/13 00:06:59;;;;;;;15.65;6.47;;;;;;;;;;4864895;29;20048;-82
2022/06/13 00:09:25;;;;;;;11.50;5.75;;;;;;;;;;4868331;29;20052;-82
2022/06/13 00:11:51;;;;;;;14.43;6.40;;;;;;;;;;4879674;29;20048;-83
2022/06/13 00:14:17;;;;;;;18.33;6.80;;;;;;;;;;4893838;29;20120;-82
2022/06/13 00:16:43;;;;;;;18.50;6.85;;;;;;;;;;4888380;29;20038;-82
2022/06/13 00:19:12;;;;;;;15.20;6.45;;;;;;;;;;4892010;29;20063;-82
2022/06/13 00:21:44;;;;;;;18.02;6.60;;;;;;;;;;4892651;29;20076;-82
2022/06/13 00:24:13;;;;;;;11.15;5.97;;;;;;;;;;4890736;29;20102;-83
2022/06/13 00:26:46;;;;;;;13.38;6.75;;;;;;;;;;4889562;29;20142;-82
2022/06/13 00:29:12;;;;;;;17.35;6.85;;;;;;;;;;4885526;29;20547;-82
2022/06/13 00:31:38;;;;;;;18.80;6.40;;;;;;;;;;4890386;29;20521;-83
2022/06/13 00:34:04;;;;;;;15.68;7.90;;;;;;;;;;4890182;29;20057;-82
2022/06/13 00:36:30;;;;;;;15.13;6.40;;;;;;;;;;4857214;29;20140;-83
2022/06/13 00:38:59;;;;;;;13.63;7.07;;;;;;;;;;4887261;29;20033;-83
2022/06/13 00:41:27;;;;;;;19.20;6.93;;;;;;;;;;4898250;29;20044;-84
2022/06/13 00:43:53;;;;;;;17.42;7.40;;;;;;;;;;4880069;29;20481;-83
2022/06/13 00:46:29;;;;;;;16.08;7.78;;;;;;;;;;4877308;29;20404;-82
2022/06/13 00:49:01;;;;;;;17.23;6.70;;;;;;;;;;4889345;29;20165;-82
2022/06/13 00:51:28;;;;;;;22.75;7.68;;;;;;;;;;4872207;29;20045;-82
2022/06/13 00:53:54;;;;;;;19.85;7.07;;;;;;;;;;4890102;29;20460;-83
2022/06/13 00:56:22;;;;;;;16.00;7.05;;;;;;;;;;4858269;29;20047;-82
2022/06/13 00:58:57;;;;;;;20.02;7.05;;;;;;;;;;4889177;29;20070;-82
2022/06/13 01:01:32;;;;;;;16.77;7.40;;;;;;;;;;4889351;29;20044;-83
2022/06/13 01:03:59;;;;;;;19.63;6.97;;;;;;;;;;4883546;29;20132;-83
2022/06/13 01:06:26;;;;;;;18.10;7.28;;;;;;;;;;4872866;29;20060;-82
2022/06/13 01:08:53;;;;;;;17.52;7.28;;;;;;;;;;4873412;29;20052;-82
2022/06/13 01:11:31;;;;;;;15.88;7.28;;;;;;;;;;4882610;29;20052;-84
2022/06/13 01:14:16;;;;;;;33.72;8.20;;;;;;;;;;4877228;29;20037;-84
2022/06/13 01:16:48;;;;;;;18.63;7.68;;;;;;;;;;4889311;29;20041;-82
2022/06/13 01:19:15;;;;;;;21.30;7.35;;;;;;;;;;4873772;29;20044;-83
2022/06/13 01:21:50;;;;;;;17.42;6.85;;;;;;;;;;4873441;29;20040;-83
2022/06/13 01:24:35;;;;;;;18.65;7.68;;;;;;;;;;4895493;29;20040;-83
2022/06/13 01:27:01;;;;;;;17.83;6.68;;;;;;;;;;4888977;29;20095;-82
2022/06/13 01:29:55;;;;;;;17.90;7.53;;;;;;;;;;4883119;29;20470;-83
2022/06/13 01:32:39;;;;;;;18.13;7.10;;;;;;;;;;4894143;29;20560;-82
2022/06/13 01:35:05;;;;;;;16.33;6.38;;;;;;;;;;4887379;29;20048;-82
2022/06/13 01:37:54;;;;;;;13.25;6.18;;;;;;;;;;4873414;29;20051;-82
2022/06/13 01:40:57;;;;;;;24.10;6.65;;;12.90;99.90;;;;;;4893668;29;20428;-83
2022/06/13 01:43:23;;;;;;;17.45;6.03;;;;;;;;;;4904202;29;20048;-81
2022/06/13 01:46:10;;;;;;;18.10;6.60;;;;;;;;;;4878045;29;20203;-82
2022/06/13 01:48:36;;;;;;;16.15;7.13;;;;;;;;;;4884733;29;20090;-83
2022/06/13 01:51:11;;;;;;;16.33;6.38;;;;;;;;;;4891589;29;20082;-83
2022/06/13 01:54:06;;;;;;;14.93;6.32;;;;;;;;;;4888835;29;20135;-83
2022/06/13 01:57:14;;;;;;;18.60;7.05;;;;;;;;;;4840308;29;20060;-83
2022/06/13 01:59:58;;;;;;;19.58;6.90;;;;;;;;;;4808684;29;20057;-83
2022/06/13 02:02:42;;;;;;;18.80;7.18;;;;;;;;;;4875681;29;20171;-83
2022/06/13 02:05:24;;;;;;;16.20;6.57;;;;;;;;;;4882746;29;20062;-83
2022/06/13 02:07:54;;;;;;;16.50;7.30;;;;;;;;;;4909901;29;20063;-81
2022/06/13 02:10:23;;;;;;;17.65;7.10;;;;;;;;;;4907300;29;20036;-83
2022/06/13 02:12:53;;;;;;;14.10;7.18;;;;;;;;;;4880847;29;20111;-83
2022/06/13 02:15:43;;;;;;;20.75;6.63;;;;;;;;;;4890388;29;20067;-83
2022/06/13 02:18:11;;;;;;;15.52;6.07;;;;;;;;;;4892185;29;20642;-83
2022/06/13 02:20:38;;;;;;;17.83;6.53;;;;;;;;;;4891762;29;20037;-83
2022/06/13 02:23:09;;;;;;;18.58;7.18;;;;;;;;;;4888392;29;20037;-83
2022/06/13 02:25:35;;;;;;;15.73;6.30;;;;;;;;;;4891915;29;20068;-82
2022/06/13 02:28:01;;;;;;;20.17;6.60;;;;;;;;;;4875633;29;20753;-82
2022/06/13 02:30:39;;;;;;;18.85;6.25;;;;;;;;;;4880483;29;20083;-81
2022/06/13 02:33:08;;;;;;;14.25;6.10;;;;;;;;;;4884942;29;20059;-82
2022/06/13 02:35:36;;;;;;;16.35;6.40;;;;;;;;;;4869799;29;20512;-82
2022/06/13 02:38:24;;;;;;;17.90;6.93;;;;;;;;;;4898285;29;20060;-83
2022/06/13 02:40:56;;;;;;;13.82;5.88;;;;;;;;;;4892846;29;20358;-83
2022/06/13 02:43:24;;;;;;;17.23;6.78;;;;;;;;;;4875812;29;20045;-83
2022/06/13 02:59:12;;;;;;;13.93;6.43;;;;;;;;;;4868520;29;20573;-83
2022/06/13 03:01:40;;;;;;;14.65;6.95;;;;;;;;;;4889794;29;20041;-82
2022/06/13 03:04:14;;;;;;;19.73;7.00;;;;;;;;;;4888151;29;20450;-83
2022/06/13 03:06:59;;;;;;;16.30;6.72;;;;;;;;;;4861731;29;20040;-82
2022/06/13 03:09:45;;;;;;;11.32;6.28;;;;;;;;;;4868128;29;20139;-83
2022/06/13 03:12:17;;;;;;;17.48;7.22;;;;;;;;;;4895379;29;20044;-83
2022/06/13 03:14:52;;;;;;;18.02;6.32;;;;;;;;;;4889410;29;20075;-84
2022/06/13 03:17:20;;;;;;;21.27;7.93;;;;;;;;;;4890518;29;20053;-83
2022/06/13 03:19:56;;;;;;;19.45;7.18;;;;;;;;;;4892538;29;20394;-84
2022/06/13 03:22:39;;;;;;;16.00;7.10;;;;;;;;;;4883374;29;20056;-83
2022/06/13 03:25:11;;;;;;;22.38;7.43;;;;;;;;;;4864552;29;20112;-82
2022/06/13 03:27:46;;;;;;;12.65;6.60;;;;;;;;;;4892794;29;20056;-82
2022/06/13 03:30:20;;;;;;;18.70;7.13;;;;;;;;;;4896279;29;20094;-83
2022/06/13 03:35:45;;;;;;;18.65;7.18;;;;;;;;;;4888627;29;20052;-82
2022/06/13 03:38:17;;;;;;;19.27;7.65;;;;;;;;;;4895896;29;20041;-81
2022/06/13 03:40:47;;;;;;;17.55;7.38;;;;;;;;;;4891420;29;20048;-83
2022/06/13 03:43:17;;;;;;;18.92;6.93;;;;;;;;;;4876327;29;20053;-82
2022/06/13 03:45:56;;;;;;;15.73;6.95;;;;;;;;;;4888782;29;20509;-83
2022/06/13 03:48:41;;;;;;;23.15;8.18;;;;;;;;;;4857644;29;20630;-82
2022/06/13 03:51:15;;;;;;;15.30;6.15;;;;;;;;;;4858198;29;20047;-82
2022/06/13 03:54:00;;;;;;;13.75;6.07;;;;;;;;;;4871349;29;20179;-80
2022/06/13 03:56:32;;;;;;;14.95;6.63;;;;;;;;;;4872784;29;20454;-83
2022/06/13 03:59:06;;;;;;;17.13;6.10;;;;;;;;;;4876650;29;20056;-83
2022/06/13 04:01:51;;;;;;;15.98;5.60;;;;;;;;;;4880797;29;20509;-82
2022/06/13 04:04:18;;;;;;;13.38;5.68;;;;;;;;;;4868171;29;20048;-83
2022/06/13 04:06:44;;;;;;;20.50;6.72;;;;;;;;;;4873872;29;20052;-83
2022/06/13 04:09:13;;;;;;;16.50;5.20;;;;;;;;;;4872176;29;20037;-82
2022/06/13 04:11:55;;;;;;;18.17;5.50;;;;;;;;;;4895771;29;20036;-82
2022/06/13 04:14:28;;;;;;;13.90;4.75;;;;;;;;;;4865052;29;20052;-84
2022/06/13 04:17:26;;;;;;;15.02;4.68;;;;;;;;;;4889613;29;20048;-83
2022/06/13 04:20:11;;;;;;;14.90;4.90;;;;;;;;;;4838492;29;20045;-82
2022/06/13 04:22:50;;;;;;;13.35;4.80;;;;;;;;;;4839015;29;20614;-82
2022/06/13 04:25:26;;;;;;;12.52;4.47;;;;;;;;;;4887134;29;20051;-83
2022/06/13 04:28:32;;;;;;;15.02;4.65;;;;;;;;;;4888575;29;20051;-81
2022/06/13 04:31:00;;;;;;;13.65;4.47;;;;;;;;;;4836426;29;20510;-82
2022/06/13 04:33:29;;;;;;;16.70;4.90;;;;;;;;;;4830350;29;20097;-83
2022/06/13 04:35:56;;;;;;;8.90;4.22;;;;;;;;;;4832595;29;20052;-82
2022/06/13 04:38:23;;;;;;;14.25;4.50;;;;;;;;;;4890703;29;20084;-82
2022/06/13 04:40:52;;;;;;;11.52;4.50;;;;;;;;;;4910077;29;20119;-81
2022/06/13 04:43:20;;;;;;;13.65;4.30;;;;;;;;;;4920097;29;20083;-82
2022/06/13 04:46:18;;;;;;;12.45;4.38;;;;;;;;;;4893933;29;20508;-82
2022/06/13 04:48:46;;;;;;;10.32;4.72;;;;;;;;;;4820073;29;20064;-82
2022/06/13 04:51:14;;;;;;;10.75;4.75;;;;;;;;;;4856545;29;20060;-82
2022/06/13 04:53:58;;;;;;;11.23;4.70;;;;;;;;;;4835952;29;20057;-82
2022/06/13 04:56:25;;;;;;;22.05;6.10;;;;;;;;;;4848761;29;20037;-82
2022/06/13 04:59:03;;;;;;;13.40;5.30;;;;;;;;;;4843974;29;20076;-82
2022/06/13 05:01:46;;;;;;;10.90;4.20;;;;;;;;;;4837917;29;20136;-82
2022/06/13 05:04:40;;;;;;;26.60;6.55;;;;;;;;;;4840100;29;20061;-85
2022/06/13 05:07:20;;;;;;;19.02;6.00;;;;;;;;;;4862361;29;20049;-84
2022/06/13 05:10:11;;;;;;;14.10;4.15;;;;;;;;;;4852332;29;20050;-84
2022/06/13 05:12:44;;;;;;;17.08;5.90;;;;;;;;;;4834197;29;20450;-88
2022/06/13 05:15:14;;;;;;;12.95;4.53;;;;;;;;;;4868378;29;20089;-90
2022/06/13 05:17:58;;;;;;;7.75;2.80;;;;;;;;;;4837153;29;20063;-87
2022/06/13 05:20:30;;;;;;;6.55;1.50;;;;;;;;;;4882060;29;20067;-90
2022/06/13 05:23:03;;;;;;;3.50;1.40;;;;;;;;;;4877081;29;20126;-90
2022/06/13 05:25:54;;;;;;;2.45;1.00;;;;;;;;;;4880971;29;20099;-83
2022/06/13 05:28:35;;;;;;;4.95;1.27;;;;;;;;;;4875965;29;20048;-83
2022/06/13 05:34:42;;;;;;;3.05;0.93;;;;;;;;;;4891987;29;20155;-87
2022/06/13 05:37:09;;;;;;;3.80;1.00;;;;;;;;;;4889026;29;20052;-88
2022/06/13 05:39:45;;;;;;;2.22;1.30;;;;;;;;;;4861032;29;20551;-88
2022/06/13 05:42:14;;;;;;;10.05;1.40;;;;;;;;;;4888367;29;20087;-84
2022/06/13 05:44:46;;;;;;;6.90;1.55;;;;;;;;;;4856761;29;20087;-87
2022/06/13 05:47:16;;;;;;;5.15;1.40;;;;;;;;;;4889419;29;20210;-87
2022/06/13 05:50:00;;;;;;;7.63;2.00;;;;;;;;;;4878909;29;20112;-89
2022/06/13 05:52:33;;;;;;;7.50;2.15;;;;;;;;;;4845159;29;20115;-87
2022/06/13 05:54:59;;;;;;;6.82;1.98;;;;;;;;;;4851550;29;20069;-88
2022/06/13 05:57:25;;;;;;;8.95;1.48;;;;;;;;;;4842890;29;20151;-86
2022/06/13 05:59:51;;;;;;;5.65;1.75;;;;;;;;;;4853752;29;20042;-86
2022/06/13 06:02:17;;;;;;;9.23;1.80;;;;;;;;;;4863127;29;20538;-87
2022/06/13 06:04:44;;;;;;;12.05;2.30;;;;;;;;;;4859871;29;20050;-87
2022/06/13 06:07:10;;;;;;;13.50;2.42;;;;;;;;;;4852285;29;20050;-88
2022/06/13 06:09:36;;;;;;;6.15;1.45;;;;;;;;;;4846518;29;20049;-85
2022/06/13 06:12:08;;;;;;;7.40;1.70;;;;;;;;;;4849684;29;20060;-88
2022/06/13 06:14:40;;;;;;;9.63;2.25;;;;;;;;;;4861323;29;20045;-86
2022/06/13 06:17:15;;;;;;;13.07;2.75;;;;;;;;;;4851425;29;20057;-86
2022/06/13 06:19:53;;;;;;;11.77;2.13;;;;;;;;;;4863487;29;20063;-86
2022/06/13 06:22:19;;;;;;;10.32;1.95;;;;;;;;;;4848871;29;20200;-85
2022/06/13 06:24:55;;;;;;;9.73;1.90;;;;;;;;;;4906466;29;20431;-87
2022/06/13 06:27:21;;;;;;;9.60;1.55;;;;;;;;;;4906405;29;20088;-87
2022/06/13 06:29:47;;;;;;;7.85;1.77;;;;;;;;;;4909720;29;20190;-86
2022/06/13 06:32:25;;;;;;;8.70;1.88;;;;;;;;;;4876003;29;20056;-86
2022/06/13 06:35:10;;;;;;;8.60;1.50;;;;;;;;;;4885958;29;20207;-87
2022/06/13 06:37:55;;;;;;;5.28;1.38;;;;;;;;;;4882635;29;20060;-86
2022/06/13 06:40:24;;;;;;;6.05;1.10;;;;;;;;;;4875625;29;20495;-87
2022/06/13 06:43:06;;;;;;;12.95;1.73;;;;;;;;;;4876129;29;20170;-89
2022/06/13 06:45:33;;;;;;;6.07;1.27;;;;;;;;;;4893533;29;20128;-88
2022/06/13 06:48:15;;;;;;;6.93;1.70;;;;;;;;;;4883070;29;20070;-84
2022/06/13 06:50:46;;;;;;;9.40;1.83;;;;;;;;;;4877393;29;20044;-89
2022/06/13 06:53:12;;;;;;;6.53;1.85;;;;;;;;;;4905874;29;20674;-88
2022/06/13 07:01:40;;;;;;;32.92;3.95;;;;;;;;;;4904412;29;20048;-85
2022/06/13 07:04:16;;;;;;;10.40;1.98;;;;;;;;;;4879655;29;20119;-83
2022/06/13 07:06:46;;;;;;;11.13;1.92;;;;;;;;;;4897208;29;20058;-86
2022/06/13 07:09:13;;;;;;;31.77;4.55;;;;;;;;;;4898279;29;20112;-81
2022/06/13 07:14:46;;;;;;;4.97;1.92;;;;;;;;;;4904701;29;20059;-87
2022/06/13 07:20:35;;;;;;;9.18;1.83;;;;;;;;;;4897664;29;20116;-84
2022/06/13 07:23:13;;;;;;;6.38;1.50;;;;;;;;;;4889575;29;20100;-86
2022/06/13 07:25:45;;;;;;;13.50;2.85;;;;;;;;;;4897299;29;20044;-84
2022/06/13 07:28:27;;;;;;;6.50;1.67;;;;;;;;;;4886975;29;20056;-84
2022/06/13 07:31:05;;;;;;;7.13;1.80;;;;;;;;;;4894279;29;20048;-84
2022/06/13 07:33:35;;;;;;;10.07;2.00;;;;;;;;;;4892301;29;20103;-89
2022/06/13 07:36:20;;;;;;;7.18;1.58;;;;;;;;;;4871642;29;20397;-88
2022/06/13 07:38:48;;;;;;;5.55;1.30;;;;;;;;;;4873518;29;20044;-87
2022/06/13 07:41:19;;;;;;;5.82;1.83;;;;;;;;;;4894236;29;20055;-88
2022/06/13 07:43:58;;;;;;;4.65;1.60;;;;;;;;;;4890783;29;20127;-86
2022/06/13 07:46:28;;;;;;;3.50;1.00;;;;;;;;;;4891214;29;20067;-86
2022/06/13 07:48:58;;;;;;;4.00;1.45;;;;;;;;;;4878541;29;20404;-87
2022/06/13 07:51:27;;;;;;;6.70;1.50;;;;;;;;;;4892492;29;20044;-86
2022/06/13 07:54:18;;;;;;;7.90;1.45;;;;;;;;;;4878056;29;20401;-84
2022/06/13 07:56:51;;;;;;;5.00;1.17;;;;;;;;;;4887243;29;20060;-87
2022/06/13 07:59:30;;;;;;;3.38;1.20;;;;;;;;;;4900018;29;20140;-87
2022/06/13 08:02:32;;;;;;;6.30;1.48;;;;;;;;;;4873050;29;20936;-85
2022/06/13 08:05:34;;;;;;;21.80;1.75;;;;;;;;;;4894007;29;20601;-84
2022/06/13 08:08:07;;;;;;;13.43;2.58;;;;;;;;;;4890647;29;20056;-83
2022/06/13 08:10:34;;;;;;;8.40;1.33;;;;;;;;;;4907300;29;20098;-85
2022/06/13 08:13:02;;;;;;;6.68;1.38;;;;;;;;;;4905902;29;20044;-85
2022/06/13 08:15:29;;;;;;;4.65;1.00;;;;;;;;;;4855882;29;20275;-84
2022/06/13 08:18:07;;;;;;;15.00;1.63;;;;;;;;;;4866390;29;20063;-84
2022/06/13 08:20:34;;;;;;;9.60;1.80;;;;;;;;;;4887498;29;20445;-84
2022/06/13 08:23:19;;;;;;;8.00;1.75;;;;;;;;;;4890265;29;20064;-83
2022/06/13 08:25:46;;;;;;;14.98;1.67;;;;;;;;;;4906050;29;20044;-84
2022/06/13 08:28:18;;;;;;;7.43;1.50;;;;;;;;;;4889859;29;20142;-84
2022/06/13 08:34:07;;;;;;;9.60;1.80;;;;;;;;;;4851453;29;20057;-84
2022/06/13 08:36:49;;;;;;;6.80;1.38;;;;;;;;;;4869442;29;20577;-83
2022/06/13 08:39:15;;;;;;;7.22;1.30;;;;;;;;;;4867588;29;20072;-84
2022/06/13 08:42:12;;;;;;;7.38;1.40;;;;;;;;;;4870136;29;20108;-84
2022/06/13 08:44:43;;;;;;;10.27;1.60;;;;;;;;;;4855233;29;20529;-85
2022/06/13 08:47:18;;;;;;;9.20;1.63;;;;;;;;;;4859263;29;20107;-84
2022/06/13 08:50:00;;;;;;;8.23;1.40;;;;;;;;;;4876075;29;20078;-84
2022/06/13 08:52:28;;;;;;;10.90;1.55;;;;;;;;;;4879613;29;20078;-85
2022/06/13 08:55:05;;;;;;;5.72;1.52;;;;;;;;;;4888648;29;20080;-84
2022/06/13 08:57:33;;;;;;;8.57;1.45;;;;;;;;;;4860761;29;20506;-84
2022/06/13 09:00:05;;;;;;;6.25;1.25;;;;;;;;;;4870975;29;20120;-84
2022/06/13 09:02:40;;;;;;;6.38;1.63;;;;;;;;;;4885284;29;20049;-84
2022/06/13 09:05:35;;;;;;;8.38;1.77;;;;;;;;;;4882199;29;20519;-85
2022/06/13 09:08:19;;;;;;;4.85;1.40;;;;;;;;;;4875897;29;20404;-84
2022/06/13 09:11:04;;;;;;;6.70;1.20;;;;;;;;;;4877789;29;20136;-84
2022/06/13 09:13:59;;;;;;;9.95;1.60;;;;;;;;;;4884882;29;20409;-83
2022/06/13 09:16:30;;;;;;;9.07;1.35;;;;;;;;;;4867224;29;20356;-85
2022/06/13 09:19:01;;;;;;;9.95;1.50;;;;;;;;;;4885105;29;20448;-84
2022/06/13 09:21:33;;;;;;;9.18;1.45;;;;;;;;;;4875719;29;20198;-84
2022/06/13 09:23:59;;;;;;;7.25;1.23;;;;;;;;;;4886862;29;20063;-85
2022/06/13 09:26:25;;;;;;;6.65;1.85;;;;;;;;;;4856213;29;20501;-84
2022/06/13 09:29:11;;;;;;;10.52;2.05;;;;;;;;;;4870296;29;20033;-84
2022/06/13 09:31:54;;;;;;;7.80;1.58;;;;;;;;;;4879636;29;20113;-84
2022/06/13 09:35:00;;;;;;;9.75;1.38;;;;;;;;;;4884733;29;20067;-85
2022/06/13 09:37:42;;;;;;;11.57;1.70;;;;;;;;;;4887259;29;20051;-84
2022/06/13 09:40:08;;;;;;;7.78;1.42;;;;;;;;;;4869067;29;20510;-84
2022/06/13 09:43:12;;;;;;;15.10;2.03;;;16.80;99.90;;;;;;4873883;29;20056;-84
2022/06/13 09:45:39;;;;;;;9.23;1.75;;;;;;;;;;4885985;29;20509;-85
2022/06/13 09:48:39;;;;;;;7.25;1.73;;;;;;;;;;4871854;29;20048;-85
2022/06/13 09:51:32;;;;;;;11.35;1.85;;;;;;;;;;4872528;29;20048;-84
2022/06/13 09:54:20;;;;;;;11.20;2.63;;;;;;;;;;4874910;29;20055;-85
2022/06/13 09:57:33;;;;;;;10.02;2.05;;;;;;;;;;4873949;29;20049;-85
2022/06/13 10:03:24;;;;;;;8.30;2.08;;;;;;;;;;4819920;29;20045;-84
2022/06/13 10:06:17;;;;;;;9.85;2.05;;;;;;;;;;4810587;29;20068;-85
2022/06/13 10:08:55;;;;;;;8.52;2.10;;;;;;;;;;4848686;29;20064;-84
2022/06/13 10:11:46;;;;;;;10.35;2.25;;;;;;;;;;4866078;29;20125;-84
2022/06/13 10:14:26;;;;;;;14.05;2.72;;;;;;;;;;4872043;29;20085;-84
2022/06/13 10:17:15;;;;;;;15.88;2.00;;;;;;;;;;4871046;29;20041;-84
2022/06/13 10:20:01;;;;;;;10.43;2.47;;;;;;;;;;4873554;29;20045;-83
2022/06/13 10:22:47;;;;;;;9.85;2.55;;;;;;;;;;4866915;29;20053;-85
2022/06/13 10:25:45;;;;;;;15.05;2.60;;;;;;;;;;4871958;29;20416;-85
2022/06/13 10:28:30;;;;;;;8.50;2.53;;;;;;;;;;4891249;29;20055;-84
2022/06/13 10:31:25;;;;;;;14.07;2.05;;;;;;;;;;4890913;29;20462;-84
2022/06/13 10:34:10;;;;;;;10.43;1.90;;;;;;;;;;4871079;29;20131;-83
2022/06/13 10:37:11;;;;;;;9.40;2.20;;;;;;;;;;4896811;29;20057;-86
2022/06/13 10:39:37;;;;;;;10.60;1.83;;;;;;;;;;4889281;29;20067;-83
2022/06/13 10:42:32;;;;;;;13.82;2.00;;;;;;;;;;4886236;29;20385;-84
2022/06/13 10:44:58;;;;;;;13.80;2.40;;;;;;;;;;4875664;29;20409;-83
2022/06/13 10:47:49;;;;;;;15.70;2.47;;;;;;;;;;4878540;29;20048;-84
2022/06/13 10:50:44;;;;;;;16.25;2.13;;;17.50;99.90;;;;;;4894067;29;20047;-84
2022/06/13 10:53:17;;;;;;;14.43;2.58;;;;;;;;;;4895097;29;20456;-82
2022/06/13 10:55:44;;;;;;;7.35;1.63;;;;;;;;;;4902677;29;20485;-79
2022/06/13 10:58:17;;;;;;;10.57;2.30;;;;;;;;;;4889905;29;20047;-83
2022/06/13 11:01:02;;;;;;;12.63;2.55;;;;;;;;;;4898254;29;20052;-80
2022/06/13 11:03:28;;;;;;;11.95;2.10;;;;;;;;;;4910467;29;20055;-82
2022/06/13 11:05:56;;;;;;;15.38;2.92;;;;;;;;;;4903131;29;20441;-79
2022/06/13 11:08:22;;;;;;;13.32;2.40;;;;;;;;;;4903855;29;20128;-80
2022/06/13 11:11:02;;;;;;;11.30;2.20;;;;;;;;;;4874967;29;20040;-81
2022/06/13 11:13:38;;;;;;;10.15;2.10;;;;;;;;;;4900975;29;20075;-82
2022/06/13 11:24:58;;;;;;;18.25;3.03;;;;;;;;;;4909017;29;20059;-79
2022/06/13 11:27:39;;;;;;;12.07;2.05;;;;;;;;;;4893294;29;20060;-80
2022/06/13 11:30:17;;;;;;;12.38;2.35;;;;;;;;;;4895348;29;20052;-81
2022/06/13 11:32:56;;;;;;;13.18;2.15;;;;;;;;;;4887594;29;20052;-80
2022/06/13 11:35:31;;;;;;;9.10;2.45;;;;;;;;;;4879824;29;20107;-80
2022/06/13 11:38:11;;;;;;;12.70;2.45;;;;;;;;;;4891326;29;20052;-79
2022/06/13 11:40:37;;;;;;;8.23;2.30;;;;;;;;;;4891847;29;20564;-78
2022/06/13 11:43:03;;;;;;;13.90;1.80;;;;;;;;;;4901987;29;20070;-80
2022/06/13 11:45:29;;;;;;;10.07;1.80;;;;;;;;;;4870088;29;20362;-81
2022/06/13 11:47:55;;;;;;;8.02;1.50;;;;;;;;;;4881581;29;20123;-80
2022/06/13 11:50:33;;;;;;;10.23;1.85;;;;;;;;;;4888497;29;20127;-81
2022/06/13 11:55:55;;;;;;;6.78;1.55;;;;;;;;;;4905539;29;20092;-83
2022/06/13 11:58:24;;;;;;;11.07;1.70;;;;;;;;;;4876571;29;20973;-80
2022/06/13 12:00:52;;;;;;;8.07;1.40;;;;;;;;;;4884558;29;20135;-79
2022/06/13 12:03:18;;;;;;;9.38;1.77;;;;;;;;;;4875068;29;20052;-80
2022/06/13 12:05:48;;;;;;;6.97;1.52;;;;;;;;;;4888129;29;20089;-81
2022/06/13 12:08:19;;;;;;;8.32;1.65;;;;;;;;;;4880667;29;20036;-81
2022/06/13 12:10:59;;;;;;;7.72;1.25;;;;;;;;;;4882294;29;20408;-82
2022/06/13 12:13:26;;;;;;;8.38;1.73;;;;;;;;;;4900207;29;20139;-81
2022/06/13 12:16:08;;;;;;;7.72;1.33;;;;;;;;;;4902806;29;20079;-82
2022/06/13 12:18:34;;;;;;;9.23;1.58;;;;;;;;;;4896661;29;20056;-82
2022/06/13 12:21:08;;;;;;;5.75;1.10;;;;;;;;;;4880748;29;20176;-81
2022/06/13 12:23:38;;;;;;;5.82;1.30;;;;;;;;;;4874498;29;20119;-81
2022/06/13 12:26:12;;;;;;;4.35;1.15;;;;;;;;;;4881522;29;20051;-78
2022/06/13 12:28:47;;;;;;;5.38;1.58;;;;;;;;;;4888311;29;20505;-81
2022/06/13 12:31:31;;;;;;;7.38;1.63;;;;;;;;;;4890406;29;20044;-84
2022/06/13 12:33:57;;;;;;;;;;;;;;;;;;4891632;29;20052;-84
2022/06/13 12:36:38;;;;;;;9.27;1.73;;;;;;;;;;4886218;29;19947;-82
2022/06/13 12:39:07;;;;;;;7.90;1.80;;;;;;;;;;4881272;29;20041;-82
2022/06/13 12:41:56;;;;;;;7.65;1.50;;;;;;;;;;4892944;29;20049;-85
2022/06/13 12:44:28;;;;;;;8.20;1.95;;;;;;;;;;4896518;29;20188;-83
2022/06/13 12:47:13;;;;;;;12.52;1.98;;;;;;;;;;4881795;29;20048;-83
2022/06/13 12:49:47;;;;;;;6.30;1.80;;;;;;;;;;4906840;29;20051;-85
2022/06/13 12:52:16;;;;;;;10.77;1.33;;;;;;;;;;4905791;29;20127;-84
2022/06/13 12:55:01;;;;;;;7.07;1.90;;;;;;;;;;4899886;29;20048;-85
2022/06/13 12:57:39;;;;;;;7.45;1.30;;;;;;;;;;4889562;29;20059;-86
2022/06/13 13:00:20;;;;;;;;;;;;;;;;;;;;;
2022/06/13 13:03:10;;;;;;;7.82;1.25;;;;;;;;;;4908442;29;20050;-86
2022/06/13 13:05:57;;;;;;;4.03;1.27;;;;;;;;;;4902657;29;20119;-87
2022/06/13 13:08:29;;;;;;;5.28;1.30;;;;;;;;;;4889744;29;20040;-85
2022/06/13 13:11:01;;;;;;;8.80;1.70;;;;;;;;;;4889146;29;20044;-85
2022/06/13 13:13:44;;;;;;;9.55;1.50;;;;;;;;;;4904342;29;20045;-83
2022/06/13 13:19:02;;;;;;;8.93;2.03;;;;;;;;;;4906388;29;20045;-85
2022/06/13 13:21:39;;;;;;;8.63;1.92;;;;;;;;;;4882537;29;20045;-86
2022/06/13 13:24:23;;;;;;;8.77;1.67;;;;;;;;;;4890566;29;20452;-85
2022/06/13 13:26:55;;;;;;;5.95;1.67;;;;;;;;;;4884310;29;20055;-86
2022/06/13 13:29:47;;;;;;;8.32;1.35;;;;;;;;;;4886164;29;20079;-85
2022/06/13 13:32:17;;;;;;;5.65;1.27;;;;;;;;;;4873917;29;20388;-86
2022/06/13 13:34:47;;;;;;;9.85;2.03;;;;;;;;;;4902683;29;20048;-85
2022/06/13 13:37:54;;;;;;;9.57;1.73;;;;;;;;;;4895588;29;20088;-85
2022/06/13 13:40:20;;;;;;;10.27;1.90;;;;;;;;;;4833043;29;20059;-85
2022/06/13 13:42:59;;;;;;;8.75;1.58;;;;;;;;;;4871539;29;20064;-84
2022/06/13 13:45:38;;;;;;;10.63;1.95;;;;;;;;;;4874521;29;20592;-84
2022/06/13 13:48:07;;;;;;;12.88;2.22;;;;;;;;;;4883762;29;20060;-85
2022/06/13 13:50:44;;;;;;;9.68;1.67;;;;;;;;;;4886035;29;20080;-84
2022/06/13 13:53:12;;;;;;;9.55;2.42;;;;;;;;;;4895076;29;20052;-83
2022/06/13 13:56:15;;;;;;;8.73;1.95;;;;;;;;;;4886778;29;20044;-84
2022/06/13 13:58:57;;;;;;;7.65;1.70;;;;;;;;;;4845599;29;20053;-82
2022/06/13 14:01:35;;;;;;;8.10;1.60;;;;;;;;;;4825970;29;20094;-84
2022/06/13 14:04:22;;;;;;;6.78;2.00;;;;;;;;;;4841980;29;20060;-85
2022/06/13 14:06:51;;;;;;;12.70;3.08;;;;;;;;;;4862138;29;20416;-83
2022/06/13 14:09:20;;;;;;;4.78;1.52;;;;;;;;;;4895200;29;20045;-84
2022/06/13 14:11:59;;;;;;;8.77;1.70;;;;;;;;;;4903152;29;20040;-83
2022/06/13 14:14:27;;;;;;;8.18;1.42;;;;;;;;;;4900406;29;20076;-83
2022/06/13 14:16:55;;;;;;;6.75;1.50;;;;;;;;;;4899781;29;20055;-84
2022/06/13 14:19:24;;;;;;;6.20;1.50;;;;;;;;;;4894164;29;20036;-83
2022/06/13 14:21:50;;;;;;;6.88;1.77;;;;;;;;;;4898520;29;20052;-85
2022/06/13 14:24:24;;;;;;;10.85;1.90;;;;;;;;;;4878058;29;20473;-83
2022/06/13 14:26:59;;;;;;;7.57;2.10;;;;;;;;;;4869427;29;20036;-88
2022/06/13 14:29:36;;;;;;;6.68;2.17;;;;;;;;;;4882204;29;20103;-86
2022/06/13 14:32:04;;;;;;;6.70;1.52;;;;;;;;;;4882107;29;20130;-88
2022/06/13 14:37:43;;;;;;;4.20;1.50;;;;;;;;;;4884307;29;20428;-86
2022/06/13 14:40:17;;;;;;;7.45;1.98;;;;;;;;;;4879790;29;20053;-85
2022/06/13 14:42:43;;;;;;;;;;;;;;;;;;4884195;29;20932;-82
2022/06/13 14:45:13;;;;;;;5.30;1.40;;;;;;;;;;4891502;29;20067;-87
2022/06/13 14:47:58;;;;;;;8.30;1.92;;;;;;;;;;4891327;29;20037;-81
2022/06/13 14:50:40;;;;;;;10.27;1.95;;;;;;;;;;4892397;29;20949;-80
2022/06/13 14:53:36;;;;;;;6.28;1.40;;;;;;;;;;4888645;29;20048;-84
2022/06/13 14:56:15;;;;;;;3.95;1.40;;;;;;;;;;4857205;29;20049;-83
2022/06/13 14:58:44;;;;;;;9.23;1.92;;;;;;;;;;4875656;29;20068;-86
2022/06/13 15:01:22;;;;;;;11.15;2.15;;;;;;;;;;4881309;29;20048;-84
2022/06/13 15:04:07;;;;;;;10.93;1.83;;;;;;;;;;4878436;29;20041;-86
2022/06/13 15:06:44;;;;;;;8.77;2.03;;;;;;;;;;4876098;29;20152;-85
2022/06/13 15:09:22;;;;;;;5.53;1.30;;;;;;;;;;4880971;29;20489;-86
2022/06/13 15:12:02;;;;;;;5.75;1.45;;;;;;;;;;4892460;29;20053;-85
2022/06/13 15:14:30;;;;;;;7.82;1.40;;;;;;;;;;4882706;29;20095;-85
2022/06/13 15:16:58;;;;;;;7.03;1.38;;;;;;;;;;4884221;29;20048;-86
2022/06/13 15:19:31;;;;;;;8.55;1.65;;;;;;;;;;4893632;29;20395;-83
2022/06/13 15:21:59;;;;;;;7.95;1.80;;;;;;;;;;4872719;29;20113;-85
2022/06/13 15:24:26;;;;;;;7.03;1.63;;;;;;;;;;4878061;29;20054;-87
2022/06/13 15:27:02;;;;;;;10.80;2.00;;;;;;;;;;4882387;29;20450;-87
2022/06/13 15:29:28;;;;;;;7.38;1.85;;;;;;;;;;4890412;29;20417;-86
2022/06/13 15:31:56;;;;;;;5.50;1.60;;;;;;;;;;4895734;29;20041;-86
2022/06/13 15:34:23;;;;;;;5.90;1.38;;;;;;;;;;4890605;29;20100;-81
2022/06/13 15:37:08;;;;;;;5.97;1.58;;;;;;;;;;4889091;29;20453;-81
2022/06/13 15:39:35;;;;;;;6.30;1.65;;;;;;;;;;4891043;29;20044;-82
2022/06/13 15:42:03;;;;;;;8.85;1.70;;;;;;;;;;4876220;29;20056;-81
2022/06/13 15:44:31;;;;;;;6.15;1.60;;;;;;;;;;4880187;29;20576;-86
2022/06/13 15:46:58;;;;;;;6.35;1.60;;;;;;;;;;4873920;29;20048;-86
2022/06/13 15:49:26;;;;;;;6.57;1.73;;;;;;;;;;4891188;29;20517;-86
2022/06/13 15:51:56;;;;;;;4.60;1.10;;;;;;;;;;4872997;29;20076;-85
2022/06/13 15:54:22;;;;;;;3.28;1.20;;;;;;;;;;4882348;29;20505;-87
2022/06/13 15:57:06;;;;;;;6.75;1.60;;;;;;;;;;4876735;29;20040;-80
2022/06/13 15:59:51;;;;;;;7.03;1.58;;;;;;;;;;4898025;29;20087;-80
2022/06/13 16:02:26;;;;;;;8.35;1.80;;;;;;;;;;4864905;29;20057;-85
2022/06/13 16:04:52;;;;;;;6.53;1.70;;;;;;;;;;4879039;29;20052;-86
2022/06/13 16:07:24;;;;;;;3.80;1.30;;;;;;;;;;4872055;29;20533;-85
2022/06/13 16:09:54;;;;;;;4.07;1.25;;;;;;;;;;4876794;29;20052;-82
2022/06/13 16:12:23;;;;;;;5.97;1.50;;;;;;;;;;4886981;29;20454;-83
2022/06/13 16:14:50;;;;;;;6.40;1.20;;;;;;;;;;4884170;29;20511;-86
2022/06/13 16:17:20;;;;;;;3.85;1.30;;;;;;;;;;4890693;29;20048;-85
2022/06/13 16:19:46;;;;;;;1.83;0.88;;;;;;;;;;4879474;29;20053;-86
2022/06/13 16:22:22;;;;;;;4.95;1.15;;;;;;;;;;4865527;29;20056;-83